createdAt,value
2017-12-21T00:01:01.894Z,99533.70
2017-12-21T00:02:06.541Z,99539.92
2017-12-21T00:03:11.177Z,99541.57
2017-12-21T00:04:16.266Z,99535.74
2017-12-21T00:05:20.968Z,99535.36
2017-12-21T00:06:25.628Z,99535.34
2017-12-21T00:07:30.266Z,99538.66
2017-12-21T00:08:34.988Z,99547.80
2017-12-21T00:09:39.715Z,99541.16
2017-12-21T00:10:44.854Z,99543.23
2017-12-21T00:11:49.512Z,99546.55
2017-12-21T00:12:54.190Z,99542.41
2017-12-21T00:13:58.931Z,99539.51
2017-12-21T00:15:03.757Z,99544.91
2017-12-21T00:16:08.511Z,99544.48
2017-12-21T00:17:13.448Z,99541.56
2017-12-21T00:18:18.086Z,99544.89
2017-12-21T00:19:22.700Z,99543.25
2017-12-21T00:20:27.368Z,99543.25
2017-12-21T00:21:32.017Z,99542.03
2017-12-21T00:22:40.914Z,99541.20
2017-12-21T00:23:46.155Z,99544.92
2017-12-21T00:24:50.833Z,99539.11
2017-12-21T00:25:55.669Z,99533.73
2017-12-21T00:27:00.311Z,99536.22
2017-12-21T00:28:04.950Z,99533.74
2017-12-21T00:29:09.432Z,99527.94
2017-12-21T00:30:14.220Z,99532.08
2017-12-21T00:31:18.772Z,99532.48
2017-12-21T00:32:23.302Z,99539.13
2017-12-21T00:33:27.910Z,99534.98
2017-12-21T00:34:32.549Z,99539.97
2017-12-21T00:35:37.188Z,99537.46
2017-12-21T00:36:42.280Z,99533.33
2017-12-21T00:37:46.871Z,99535.41
2017-12-21T00:38:51.455Z,99532.52
2017-12-21T00:39:56.099Z,99542.05
2017-12-21T00:41:00.700Z,99531.68
2017-12-21T00:42:05.292Z,99524.64
2017-12-21T00:43:10.246Z,99525.45
2017-12-21T00:44:14.862Z,99525.04
2017-12-21T00:45:19.458Z,99524.62
2017-12-21T00:46:24.039Z,99520.07
2017-12-21T00:47:28.605Z,99528.80
2017-12-21T00:48:33.162Z,99528.39
2017-12-21T00:49:38.329Z,99531.70
2017-12-21T00:50:43.022Z,99531.28
2017-12-21T00:51:48.210Z,99528.80
2017-12-21T00:52:52.816Z,99534.59
2017-12-21T00:53:57.373Z,99527.53
2017-12-21T00:55:01.959Z,99532.50
2017-12-21T00:56:06.903Z,99530.03
2017-12-21T00:57:11.489Z,99535.83
2017-12-21T00:58:16.108Z,99530.85
2017-12-21T00:59:20.722Z,99531.69
2017-12-21T01:00:25.355Z,99536.66
2017-12-21T01:01:29.948Z,99530.46
2017-12-21T01:02:34.990Z,99534.59
2017-12-21T01:03:39.655Z,99532.11
2017-12-21T01:04:44.277Z,99537.09
2017-12-21T01:05:48.877Z,99539.16
2017-12-21T01:06:53.475Z,99544.96
2017-12-21T01:07:58.083Z,99539.13
2017-12-21T01:09:03.362Z,99542.86
2017-12-21T01:10:07.903Z,99540.80
2017-12-21T01:11:12.449Z,99536.26
2017-12-21T01:12:17.993Z,99535.01
2017-12-21T01:13:22.528Z,99533.77
2017-12-21T01:14:27.130Z,99527.97
2017-12-21T01:15:31.985Z,99530.03
2017-12-21T01:16:36.397Z,99531.29
2017-12-21T01:17:40.895Z,99534.19
2017-12-21T01:18:45.462Z,99538.75
2017-12-21T01:19:50.056Z,99544.53
2017-12-21T01:20:54.701Z,99552.00
2017-12-21T01:22:00.004Z,99552.84
2017-12-21T01:23:04.607Z,99554.47
2017-12-21T01:24:09.195Z,99559.85
2017-12-21T01:25:13.781Z,99562.36
2017-12-21T01:26:18.351Z,99563.58
2017-12-21T01:27:23.008Z,99556.95
2017-12-21T01:28:28.003Z,99556.95
2017-12-21T01:29:32.736Z,99558.62
2017-12-21T01:30:37.417Z,99563.58
2017-12-21T01:31:41.958Z,99564.81
2017-12-21T01:32:46.471Z,99559.43
2017-12-21T01:33:51.192Z,99572.26
2017-12-21T01:34:56.099Z,99568.09
2017-12-21T01:36:00.792Z,99566.87
2017-12-21T01:37:05.435Z,99562.34
2017-12-21T01:38:10.029Z,99566.46
2017-12-21T01:39:14.642Z,99560.66
2017-12-21T01:40:19.229Z,99565.23
2017-12-21T01:41:24.216Z,99566.05
2017-12-21T01:42:28.824Z,99566.05
2017-12-21T01:43:33.460Z,99563.14
2017-12-21T01:44:38.032Z,99561.49
2017-12-21T01:45:42.742Z,99562.34
2017-12-21T01:46:47.447Z,99564.40
2017-12-21T01:47:52.561Z,99558.19
2017-12-21T01:48:57.136Z,99561.91
2017-12-21T01:50:02.419Z,99564.38
2017-12-21T01:51:07.077Z,99565.62
2017-12-21T01:52:11.711Z,99566.04
2017-12-21T01:53:16.286Z,99570.61
2017-12-21T01:54:21.197Z,99562.75
2017-12-21T01:55:25.738Z,99568.97
2017-12-21T01:56:30.399Z,99561.50
2017-12-21T01:57:34.967Z,99562.34
2017-12-21T01:58:39.801Z,99559.42
2017-12-21T01:59:44.410Z,99555.70
2017-12-21T02:00:49.753Z,99557.36
2017-12-21T02:01:55.004Z,99552.79
2017-12-21T02:02:59.619Z,99555.69
2017-12-21T02:04:04.182Z,99554.84
2017-12-21T02:05:08.775Z,99559.83
2017-12-21T02:06:13.390Z,99558.59
2017-12-21T02:07:18.289Z,99555.26
2017-12-21T02:08:23.702Z,99556.49
2017-12-21T02:09:28.289Z,99555.66
2017-12-21T02:10:32.920Z,99550.70
2017-12-21T02:11:37.599Z,99546.53
2017-12-21T02:12:42.212Z,99544.47
2017-12-21T02:13:47.178Z,99541.55
2017-12-21T02:14:51.756Z,99537.83
2017-12-21T02:15:56.320Z,99536.62
2017-12-21T02:17:00.910Z,99529.58
2017-12-21T02:18:05.448Z,99530.80
2017-12-21T02:19:10.064Z,99533.69
2017-12-21T02:20:15.047Z,99525.00
2017-12-21T02:21:19.623Z,99522.10
2017-12-21T02:22:24.198Z,99525.80
2017-12-21T02:23:28.819Z,99525.41
2017-12-21T02:24:33.416Z,99532.03
2017-12-21T02:25:38.027Z,99534.11
2017-12-21T02:26:44.226Z,99537.82
2017-12-21T02:27:49.075Z,99539.47
2017-12-21T02:28:53.691Z,99537.00
2017-12-21T02:29:58.359Z,99532.02
2017-12-21T02:31:02.959Z,99536.58
2017-12-21T02:32:07.569Z,99538.65
2017-12-21T02:33:12.613Z,99544.45
2017-12-21T02:34:17.141Z,99543.64
2017-12-21T02:35:21.666Z,99549.45
2017-12-21T02:36:26.231Z,99546.13
2017-12-21T02:37:30.841Z,99550.70
2017-12-21T02:38:35.414Z,99556.53
2017-12-21T02:39:40.271Z,99546.58
2017-12-21T02:40:44.803Z,99552.38
2017-12-21T02:41:50.389Z,99552.80
2017-12-21T02:42:55.027Z,99551.97
2017-12-21T02:43:59.607Z,99551.56
2017-12-21T02:45:04.203Z,99553.20
2017-12-21T02:46:10.434Z,99545.75
2017-12-21T02:47:15.364Z,99550.73
2017-12-21T02:48:20.056Z,99543.67
2017-12-21T02:49:24.641Z,99551.15
2017-12-21T02:50:29.277Z,99555.70
2017-12-21T02:51:33.825Z,99552.36
2017-12-21T02:52:38.788Z,99552.34
2017-12-21T02:53:43.394Z,99553.59
2017-12-21T02:54:47.981Z,99547.38
2017-12-21T02:55:52.598Z,99550.23
2017-12-21T02:56:57.283Z,99551.06
2017-12-21T02:58:02.293Z,99551.88
2017-12-21T02:59:07.533Z,99543.61
2017-12-21T03:00:12.113Z,99541.13
2017-12-21T03:01:16.694Z,99543.64
2017-12-21T03:02:21.353Z,99537.84
2017-12-21T03:03:25.935Z,99539.50
2017-12-21T03:04:30.536Z,99534.52
2017-12-21T03:05:35.457Z,99539.91
2017-12-21T03:06:40.865Z,99539.50
2017-12-21T03:07:45.414Z,99536.58
2017-12-21T03:08:50.001Z,99533.67
2017-12-21T03:09:54.628Z,99532.83
2017-12-21T03:10:59.261Z,99535.29
2017-12-21T03:12:04.095Z,99531.14
2017-12-21T03:13:08.641Z,99528.27
2017-12-21T03:14:13.226Z,99524.96
2017-12-21T03:15:17.805Z,99531.62
2017-12-21T03:16:23.339Z,99524.97
2017-12-21T03:17:28.196Z,99524.55
2017-12-21T03:18:33.550Z,99520.84
2017-12-21T03:19:38.107Z,99523.33
2017-12-21T03:20:42.533Z,99525.80
2017-12-21T03:21:46.999Z,99527.89
2017-12-21T03:22:51.581Z,99522.89
2017-12-21T03:23:56.153Z,99517.52
2017-12-21T03:25:01.081Z,99519.59
2017-12-21T03:26:06.028Z,99517.51
2017-12-21T03:27:10.610Z,99519.59
2017-12-21T03:28:15.342Z,99515.44
2017-12-21T03:29:19.810Z,99520.01
2017-12-21T03:30:24.333Z,99519.59
2017-12-21T03:31:29.199Z,99517.12
2017-12-21T03:32:33.641Z,99517.55
2017-12-21T03:33:38.232Z,99517.95
2017-12-21T03:34:42.824Z,99520.45
2017-12-21T03:35:47.424Z,99518.41
2017-12-21T03:36:52.045Z,99520.48
2017-12-21T03:37:57.227Z,99524.20
2017-12-21T03:39:01.882Z,99522.12
2017-12-21T03:40:06.344Z,99526.27
2017-12-21T03:41:10.768Z,99517.14
2017-12-21T03:42:15.259Z,99519.23
2017-12-21T03:43:19.867Z,99519.63
2017-12-21T03:44:24.921Z,99517.14
2017-12-21T03:45:29.732Z,99519.23
2017-12-21T03:46:34.355Z,99518.83
2017-12-21T03:47:38.959Z,99511.77
2017-12-21T03:48:43.568Z,99508.05
2017-12-21T03:49:48.157Z,99508.87
2017-12-21T03:50:53.273Z,99501.81
2017-12-21T03:51:57.872Z,99506.77
2017-12-21T03:53:02.474Z,99509.64
2017-12-21T03:54:07.030Z,99503.86
2017-12-21T03:55:11.570Z,99509.27
2017-12-21T03:56:16.215Z,99510.08
2017-12-21T03:57:21.380Z,99502.19
2017-12-21T03:58:25.969Z,99495.15
2017-12-21T03:59:30.719Z,99502.20
2017-12-21T04:00:35.335Z,99503.44
2017-12-21T04:01:40.050Z,99504.26
2017-12-21T04:02:44.671Z,99505.91
2017-12-21T04:03:49.654Z,99497.59
2017-12-21T04:04:54.297Z,99505.48
2017-12-21T04:05:58.909Z,99508.38
2017-12-21T04:07:04.308Z,99505.48
2017-12-21T04:08:08.921Z,99509.64
2017-12-21T04:09:13.449Z,99508.84
2017-12-21T04:10:18.481Z,99511.75
2017-12-21T04:11:23.034Z,99509.67
2017-12-21T04:12:27.653Z,99514.64
2017-12-21T04:13:32.397Z,99517.97
2017-12-21T04:14:38.541Z,99513.41
2017-12-21T04:15:43.142Z,99512.61
2017-12-21T04:16:48.024Z,99513.02
2017-12-21T04:17:52.623Z,99513.00
2017-12-21T04:18:57.330Z,99508.05
2017-12-21T04:20:01.978Z,99500.98
2017-12-21T04:21:07.006Z,99503.89
2017-12-21T04:22:11.633Z,99505.95
2017-12-21T04:23:16.635Z,99505.11
2017-12-21T04:24:21.279Z,99509.24
2017-12-21T04:25:26.295Z,99507.59
2017-12-21T04:26:30.946Z,99501.37
2017-12-21T04:27:36.549Z,99503.83
2017-12-21T04:28:41.207Z,99501.77
2017-12-21T04:29:46.319Z,99495.94
2017-12-21T04:30:51.151Z,99496.38
2017-12-21T04:31:55.809Z,99494.71
2017-12-21T04:33:00.473Z,99500.50
2017-12-21T04:34:05.108Z,99494.70
2017-12-21T04:35:09.736Z,99501.77
